메인 페이지
METAR-TAF:

METAR-TAF

공항 :

Sherbrooke, 퀘벡, 캐나다

위도: 45-24N, 경도: 071-53W, 고도: 170m

현재 날씨관측

예보는 26분 전, 09:05시(UTC)에 발표되었습니다.
서남서3kt
온도 10°C
습도 100%
기압 1005 hPa
시정: 14.5km
고도 1000ft 상공 구름 많음

METAR: CYSC 040905Z AUTO 25003KT 9SM BKN010 10/10 A2968 RMK SLP057

시각: 05:31 (09:31 UTC)

예보

예보는 9 시간 50분 전, 23:41시(UTC)에 발표되었습니다.
예보 대상 시간: 04일 00시부터 04일 03시까지 (UTC)
서남서5kt
시정: 10km
고도 700ft 상공 구름 보통
고도 1500ft 상공 흐림
일시적
04일 00시부터 04일 03시까지 (UTC)
시정: 10km
고도 700ft 상공 구름 많음
고도 1500ft 상공 흐림
약한소나기

TAF: CYSC 032341Z 0400/0403 25005KT P6SM SCT007 OVC015 TEMPO 0400/0403 P6SM -SHRA BKN007 OVC015 RMK FCST BASED ON AUTO OBS. NXT FCST WILL BE ISSUED AT 041045Z

4,000개 이상의 공항 관측 자료 및 예보 (METAR 및 TAF 보고).

지도상에서 검색 가능한 기상관측소가 노란 점과 빨간 점으로 표시되어 있습니다.

기상관측소 명을 보려면 표시 위로 마우스를 이동하세요.

날씨 관측과 예보를 보려면 클릭하세요.

지도 변경 : 확대하려면 엑스 표시가 있는 녹색 버튼, 축소하려면 빼기 표시가 있는 녹색 버튼, 다음 페이지의 지도를 보려면 녹색 화살표를 클릭하세요.


METAR-TAF: